createdAt,value
2019-03-26T00:03:34.091Z,2.00
2019-03-26T00:06:14.447Z,1.45
2019-03-26T00:08:55.540Z,1.95
2019-03-26T00:11:36.435Z,1.67
2019-03-26T00:14:17.435Z,1.75
2019-03-26T00:16:58.243Z,1.15
2019-03-26T00:19:39.043Z,1.72
2019-03-26T00:22:20.046Z,1.98
2019-03-26T00:25:01.095Z,1.92
2019-03-26T00:27:42.156Z,1.62
2019-03-26T00:30:22.900Z,1.67
2019-03-26T00:33:03.911Z,1.40
2019-03-26T00:35:44.847Z,1.87
2019-03-26T00:38:25.467Z,2.17
2019-03-26T00:41:06.066Z,2.67
2019-03-26T00:43:46.870Z,2.50
2019-03-26T00:46:27.608Z,1.30
2019-03-26T00:49:08.266Z,1.62
2019-03-26T00:51:48.913Z,1.62
2019-03-26T00:54:29.934Z,1.80
2019-03-26T00:57:10.407Z,2.20
2019-03-26T00:59:51.499Z,2.25
2019-03-26T01:02:31.868Z,2.72
2019-03-26T01:05:12.282Z,1.92
2019-03-26T01:07:52.751Z,1.70
2019-03-26T01:10:33.599Z,1.65
2019-03-26T01:13:14.260Z,1.87
2019-03-26T01:15:54.708Z,2.27
2019-03-26T01:18:34.956Z,1.87
2019-03-26T01:21:15.840Z,1.52
2019-03-26T01:23:56.595Z,1.60
2019-03-26T01:26:37.632Z,1.60
2019-03-26T01:29:18.477Z,2.10
2019-03-26T01:31:59.131Z,2.02
2019-03-26T01:34:46.007Z,1.92
2019-03-26T01:37:22.594Z,2.60
2019-03-26T01:40:03.519Z,1.77
2019-03-26T01:42:43.959Z,1.90
2019-03-26T01:45:24.974Z,1.22
2019-03-26T01:48:05.327Z,2.05
2019-03-26T01:50:45.818Z,3.45
2019-03-26T01:53:26.755Z,1.50
2019-03-26T01:56:07.655Z,1.40
2019-03-26T01:58:48.500Z,1.35
2019-03-26T02:01:29.134Z,1.67
2019-03-26T02:04:09.531Z,3.02
2019-03-26T02:06:50.003Z,1.65
2019-03-26T02:09:30.190Z,1.85
2019-03-26T02:12:10.815Z,1.35
2019-03-26T02:14:51.202Z,1.62
2019-03-26T02:17:31.577Z,2.15
2019-03-26T02:20:12.139Z,1.82
2019-03-26T02:22:52.623Z,1.47
2019-03-26T02:25:33.365Z,2.20
2019-03-26T02:28:13.964Z,1.85
2019-03-26T02:30:54.465Z,1.25
2019-03-26T02:33:35.414Z,1.35
2019-03-26T02:36:15.911Z,1.98
2019-03-26T02:38:56.628Z,2.15
2019-03-26T02:41:38.134Z,2.15
2019-03-26T02:44:18.908Z,2.30
2019-03-26T02:46:59.428Z,2.30
2019-03-26T02:49:40.214Z,1.55
2019-03-26T02:52:20.888Z,2.25
2019-03-26T02:55:01.477Z,2.42
2019-03-26T02:57:41.919Z,1.40
2019-03-26T03:00:22.392Z,1.57
2019-03-26T03:03:03.058Z,1.72
2019-03-26T03:05:43.431Z,1.80
2019-03-26T03:08:23.927Z,1.50
2019-03-26T03:11:04.703Z,1.60
2019-03-26T03:13:45.254Z,2.15
2019-03-26T03:16:26.235Z,1.37
2019-03-26T03:19:06.979Z,1.72
2019-03-26T03:21:47.599Z,1.67
2019-03-26T03:24:28.419Z,1.50
2019-03-26T03:27:07.048Z,1.50
2019-03-26T03:29:55.040Z,1.77
2019-03-26T03:32:42.756Z,1.32
2019-03-26T03:35:30.468Z,1.77
2019-03-26T03:38:18.187Z,1.67
2019-03-26T03:41:25.255Z,1.55
2019-03-26T03:44:12.974Z,1.37
2019-03-26T03:47:21.668Z,1.87
2019-03-26T03:50:09.825Z,1.90
2019-03-26T03:53:18.268Z,1.10
2019-03-26T03:56:26.954Z,1.10
2019-03-26T03:59:14.968Z,1.55
2019-03-26T04:02:02.910Z,1.70
2019-03-26T04:04:50.629Z,1.50
2019-03-26T04:07:38.612Z,2.02
2019-03-26T04:10:19.525Z,1.92
2019-03-26T04:12:59.911Z,1.15
2019-03-26T04:15:40.591Z,1.50
2019-03-26T04:18:21.156Z,1.35
2019-03-26T04:21:01.571Z,1.00
2019-03-26T04:23:42.198Z,3.02
2019-03-26T04:26:22.675Z,1.45
2019-03-26T04:29:03.267Z,1.65
2019-03-26T04:31:43.804Z,1.50
2019-03-26T04:34:24.408Z,1.98
2019-03-26T04:37:05.097Z,1.00
2019-03-26T04:39:46.001Z,1.20
2019-03-26T04:42:26.551Z,1.30
2019-03-26T04:45:07.498Z,1.82
2019-03-26T04:47:48.167Z,1.30
2019-03-26T04:50:28.836Z,1.37
2019-03-26T04:53:09.251Z,0.90
2019-03-26T04:55:49.992Z,1.10
2019-03-26T04:58:31.140Z,1.98
2019-03-26T05:01:11.784Z,1.57
2019-03-26T05:03:51.983Z,1.35
2019-03-26T05:06:37.756Z,1.65
2019-03-26T05:09:15.251Z,1.50
2019-03-26T05:11:55.803Z,2.70
2019-03-26T05:14:36.612Z,1.60
2019-03-26T05:17:17.363Z,1.82
2019-03-26T05:19:58.136Z,1.77
2019-03-26T05:22:39.047Z,1.75
2019-03-26T05:25:19.587Z,1.98
2019-03-26T05:28:00.405Z,1.10
2019-03-26T05:30:40.988Z,1.52
2019-03-26T05:33:21.859Z,2.02
2019-03-26T05:36:02.515Z,1.80
2019-03-26T05:38:43.368Z,1.82
2019-03-26T05:41:24.043Z,2.72
2019-03-26T05:44:05.043Z,1.42
2019-03-26T05:46:45.903Z,3.70
2019-03-26T05:49:26.391Z,1.52
2019-03-26T05:52:07.118Z,3.70
2019-03-26T05:54:47.960Z,1.22
2019-03-26T05:57:29.099Z,2.45
2019-03-26T06:00:10.278Z,1.60
2019-03-26T06:02:51.235Z,1.90
2019-03-26T06:05:31.983Z,2.30
2019-03-26T06:08:12.649Z,1.30
2019-03-26T06:10:53.019Z,2.10
2019-03-26T06:13:33.898Z,2.52
2019-03-26T06:16:14.599Z,2.17
2019-03-26T06:18:54.996Z,2.00
2019-03-26T06:21:36.184Z,2.30
2019-03-26T06:24:16.984Z,2.08
2019-03-26T06:26:57.651Z,2.12
2019-03-26T06:29:38.200Z,2.60
2019-03-26T06:32:18.887Z,1.65
2019-03-26T06:34:59.979Z,2.22
2019-03-26T06:37:40.388Z,1.75
2019-03-26T06:40:20.949Z,1.57
2019-03-26T06:43:01.648Z,2.17
2019-03-26T06:45:42.879Z,2.25
2019-03-26T06:48:23.543Z,2.40
2019-03-26T06:53:48.208Z,2.95
2019-03-26T06:56:28.639Z,2.60
2019-03-26T06:59:09.596Z,2.27
2019-03-26T07:01:50.034Z,3.02
2019-03-26T07:07:12.472Z,3.60
2019-03-26T07:09:53.043Z,4.35
2019-03-26T07:12:33.367Z,2.92
2019-03-26T07:15:13.655Z,3.30
2019-03-26T07:17:54.311Z,3.72
2019-03-26T07:20:35.193Z,3.30
2019-03-26T07:23:15.689Z,3.35
2019-03-26T07:25:56.475Z,3.87
2019-03-26T07:28:36.738Z,3.27
2019-03-26T07:31:17.248Z,2.42
2019-03-26T07:33:57.886Z,3.80
2019-03-26T07:36:38.340Z,4.47
2019-03-26T07:39:19.640Z,2.77
2019-03-26T07:42:00.630Z,2.87
2019-03-26T07:44:41.088Z,2.50
2019-03-26T07:47:21.528Z,2.65
2019-03-26T07:50:02.111Z,2.55
2019-03-26T07:52:43.032Z,2.60
2019-03-26T07:55:23.215Z,2.12
2019-03-26T07:58:03.701Z,3.40
2019-03-26T08:00:44.463Z,2.85
2019-03-26T08:03:24.674Z,3.05
2019-03-26T08:06:05.511Z,3.35
2019-03-26T08:08:46.241Z,3.35
2019-03-26T08:11:26.847Z,3.45
2019-03-26T08:14:07.335Z,2.85
2019-03-26T08:16:47.708Z,3.50
2019-03-26T08:19:28.259Z,3.10
2019-03-26T08:22:08.559Z,4.40
2019-03-26T08:24:49.116Z,3.77
2019-03-26T08:27:29.727Z,3.05
2019-03-26T08:30:10.271Z,2.75
2019-03-26T08:32:50.482Z,2.35
2019-03-26T08:35:31.572Z,3.20
2019-03-26T08:38:13.470Z,2.40
2019-03-26T08:40:53.874Z,2.60
2019-03-26T08:43:34.506Z,2.70
2019-03-26T08:46:15.775Z,2.77
2019-03-26T08:48:56.316Z,2.60
2019-03-26T08:51:36.920Z,2.62
2019-03-26T08:54:17.951Z,2.20
2019-03-26T08:56:58.211Z,2.60
2019-03-26T08:59:38.872Z,2.40
2019-03-26T09:02:20.080Z,3.30
2019-03-26T09:05:00.460Z,3.77
2019-03-26T09:07:40.979Z,3.10
2019-03-26T09:10:21.434Z,2.72
2019-03-26T09:13:01.961Z,2.67
2019-03-26T09:15:42.323Z,2.58
2019-03-26T09:18:22.995Z,2.90
2019-03-26T09:21:03.583Z,4.20
2019-03-26T09:23:44.147Z,3.60
2019-03-26T09:26:24.709Z,4.47
2019-03-26T09:29:05.415Z,4.22
2019-03-26T09:31:46.368Z,4.08
2019-03-26T09:34:26.747Z,5.15
2019-03-26T09:37:07.383Z,4.58
2019-03-26T09:39:48.358Z,4.70
2019-03-26T09:42:28.976Z,5.20
2019-03-26T09:45:09.549Z,5.58
2019-03-26T09:47:50.335Z,5.78
2019-03-26T09:50:30.879Z,5.15
2019-03-26T09:53:11.781Z,4.87
2019-03-26T09:55:52.639Z,4.33
2019-03-26T09:58:33.212Z,6.10
2019-03-26T10:01:14.103Z,5.95
2019-03-26T10:03:54.380Z,5.67
2019-03-26T10:06:34.810Z,5.83
2019-03-26T10:09:15.531Z,6.85
2019-03-26T10:11:56.183Z,7.25
2019-03-26T10:14:36.947Z,8.30
2019-03-26T10:17:17.451Z,7.47
2019-03-26T10:19:57.928Z,8.03
2019-03-26T10:22:38.344Z,6.10
2019-03-26T10:25:18.823Z,6.90
2019-03-26T10:27:59.355Z,6.90
2019-03-26T10:30:39.877Z,7.70
2019-03-26T10:33:20.291Z,8.23
2019-03-26T10:36:00.775Z,7.75
2019-03-26T10:38:41.531Z,5.28
2019-03-26T10:41:22.463Z,6.90
2019-03-26T10:44:02.720Z,8.40
2019-03-26T10:46:44.602Z,7.17
2019-03-26T10:49:24.979Z,5.95
2019-03-26T10:52:05.612Z,7.40
2019-03-26T10:54:46.060Z,6.00
2019-03-26T10:57:26.443Z,5.05
2019-03-26T11:00:06.826Z,5.85
2019-03-26T11:02:47.360Z,5.33
2019-03-26T11:05:27.572Z,6.08
2019-03-26T11:08:08.103Z,5.50
2019-03-26T11:10:48.866Z,7.08
2019-03-26T11:13:29.167Z,5.83
2019-03-26T11:16:09.983Z,5.67
2019-03-26T11:18:50.999Z,5.47
2019-03-26T11:21:32.135Z,4.85
2019-03-26T11:24:12.523Z,6.50
2019-03-26T11:26:52.864Z,6.08
2019-03-26T11:29:33.507Z,5.08
2019-03-26T11:32:13.931Z,6.28
2019-03-26T11:34:54.635Z,4.47
2019-03-26T11:37:35.447Z,6.12
2019-03-26T11:40:15.976Z,6.50
2019-03-26T11:42:57.212Z,6.05
2019-03-26T11:45:37.835Z,5.30
2019-03-26T11:48:17.987Z,6.05
2019-03-26T11:50:58.723Z,5.42
2019-03-26T11:53:39.328Z,5.17
2019-03-26T11:56:19.859Z,5.03
2019-03-26T11:59:00.147Z,5.92
2019-03-26T12:01:41.011Z,6.20
2019-03-26T12:04:21.717Z,5.72
2019-03-26T12:07:02.307Z,5.62
2019-03-26T12:09:46.590Z,5.55
2019-03-26T12:12:25.531Z,5.20
2019-03-26T12:15:06.636Z,5.78
2019-03-26T12:17:47.664Z,6.17
2019-03-26T12:20:27.880Z,5.65
2019-03-26T12:23:08.548Z,5.60
2019-03-26T12:25:49.135Z,6.03
2019-03-26T12:28:29.732Z,7.12
2019-03-26T12:31:10.160Z,6.50
2019-03-26T12:33:50.661Z,6.80
2019-03-26T12:36:39.849Z,5.95
2019-03-26T12:39:13.451Z,6.28
2019-03-26T12:41:53.970Z,5.62
2019-03-26T12:44:34.855Z,5.80
2019-03-26T12:47:15.281Z,5.03
2019-03-26T12:49:55.683Z,5.45
2019-03-26T12:52:36.295Z,5.47
2019-03-26T12:55:17.331Z,4.22
2019-03-26T12:57:57.816Z,5.47
2019-03-26T13:00:38.449Z,5.03
2019-03-26T13:03:19.223Z,4.12
2019-03-26T13:05:59.712Z,4.17
2019-03-26T13:08:40.719Z,3.58
2019-03-26T13:11:21.131Z,4.28
2019-03-26T13:14:01.643Z,3.75
2019-03-26T13:16:42.272Z,3.75
2019-03-26T13:19:22.772Z,3.70
2019-03-26T13:22:03.568Z,3.95
2019-03-26T13:24:44.079Z,3.52
2019-03-26T13:27:24.520Z,3.58
2019-03-26T13:30:05.293Z,3.72
2019-03-26T13:32:45.892Z,3.27
2019-03-26T13:35:26.530Z,4.20
2019-03-26T13:38:06.983Z,4.70
2019-03-26T13:40:47.832Z,3.62
2019-03-26T13:43:28.251Z,3.58
2019-03-26T13:46:09.088Z,3.10
2019-03-26T13:48:49.455Z,4.58
2019-03-26T13:51:30.155Z,3.22
2019-03-26T13:54:10.911Z,3.62
2019-03-26T13:56:51.360Z,3.80
2019-03-26T13:59:31.832Z,2.92
2019-03-26T14:02:12.671Z,2.85
2019-03-26T14:04:52.879Z,3.00
2019-03-26T14:07:33.330Z,3.42
2019-03-26T14:10:13.767Z,2.95
2019-03-26T14:12:54.513Z,3.52
2019-03-26T14:15:34.950Z,2.25
2019-03-26T14:18:15.268Z,2.90
2019-03-26T14:20:56.100Z,1.95
2019-03-26T14:23:36.808Z,1.95
2019-03-26T14:26:17.188Z,2.02
2019-03-26T14:28:58.271Z,2.75
2019-03-26T14:31:39.563Z,2.35
2019-03-26T14:34:20.131Z,2.42
2019-03-26T14:37:00.874Z,2.50
2019-03-26T14:39:41.575Z,2.20
2019-03-26T14:42:22.749Z,2.33
2019-03-26T14:45:03.259Z,2.02
2019-03-26T14:47:43.700Z,1.60
2019-03-26T14:50:24.743Z,2.20
2019-03-26T14:53:05.244Z,2.05
2019-03-26T14:55:45.710Z,1.95
2019-03-26T14:58:26.168Z,1.70
2019-03-26T15:01:06.644Z,1.95
2019-03-26T15:03:47.016Z,2.05
2019-03-26T15:06:27.231Z,2.00
2019-03-26T15:09:07.718Z,1.55
2019-03-26T15:11:48.692Z,1.98
2019-03-26T15:14:29.209Z,2.12
2019-03-26T15:17:09.872Z,2.15
2019-03-26T15:19:50.391Z,2.90
2019-03-26T15:22:30.987Z,2.17
2019-03-26T15:25:11.547Z,2.12
2019-03-26T15:27:52.195Z,2.40
2019-03-26T15:30:32.739Z,2.35
2019-03-26T15:33:13.002Z,2.40
2019-03-26T15:35:53.662Z,2.77
2019-03-26T15:41:21.810Z,2.52
2019-03-26T15:44:01.039Z,3.65
2019-03-26T15:46:41.511Z,3.05
2019-03-26T15:49:21.908Z,2.42
2019-03-26T15:52:02.289Z,2.30
2019-03-26T15:54:42.914Z,2.80
2019-03-26T15:57:24.055Z,2.45
2019-03-26T16:00:04.914Z,2.60
2019-03-26T16:02:45.287Z,3.52
2019-03-26T16:05:26.261Z,2.90
2019-03-26T16:08:06.782Z,2.70
2019-03-26T16:10:47.135Z,2.90
2019-03-26T16:13:28.295Z,3.12
2019-03-26T16:16:08.852Z,2.45
2019-03-26T16:18:49.719Z,2.60
2019-03-26T16:21:30.523Z,3.80
2019-03-26T16:24:10.758Z,3.80
2019-03-26T16:26:51.183Z,2.90
2019-03-26T16:29:31.739Z,3.72
2019-03-26T16:32:12.720Z,3.55
2019-03-26T16:34:53.463Z,3.45
2019-03-26T16:37:33.857Z,3.98
2019-03-26T16:40:14.360Z,3.60
2019-03-26T16:42:54.779Z,4.05
2019-03-26T16:45:35.263Z,3.72
2019-03-26T16:48:15.956Z,3.90
2019-03-26T16:50:57.058Z,4.22
2019-03-26T16:53:38.071Z,3.95
2019-03-26T16:56:18.892Z,3.42
2019-03-26T16:58:59.363Z,4.42
2019-03-26T17:01:39.760Z,4.08
2019-03-26T17:04:20.688Z,3.65
2019-03-26T17:07:01.067Z,3.40
2019-03-26T17:09:41.757Z,4.40
2019-03-26T17:12:22.251Z,4.78
2019-03-26T17:15:03.532Z,4.25
2019-03-26T17:17:44.124Z,3.67
2019-03-26T17:20:24.475Z,3.37
2019-03-26T17:23:05.442Z,3.15
2019-03-26T17:25:46.262Z,4.15
2019-03-26T17:28:27.032Z,4.10
2019-03-26T17:31:07.639Z,3.75
2019-03-26T17:33:48.039Z,3.95
2019-03-26T17:36:28.747Z,3.17
2019-03-26T17:39:09.049Z,3.67
2019-03-26T17:41:49.582Z,3.40
2019-03-26T17:44:30.107Z,3.80
2019-03-26T17:47:10.640Z,3.42
2019-03-26T17:49:51.632Z,2.87
2019-03-26T17:52:32.247Z,2.90
2019-03-26T17:55:13.000Z,3.10
2019-03-26T17:57:53.375Z,3.00
2019-03-26T18:00:33.728Z,3.25
2019-03-26T18:03:25.671Z,3.40
2019-03-26T18:05:56.555Z,3.80
2019-03-26T18:08:37.148Z,3.12
2019-03-26T18:11:16.042Z,3.12
2019-03-26T18:14:03.871Z,2.98
2019-03-26T18:16:51.578Z,3.35
2019-03-26T18:19:39.579Z,3.72
2019-03-26T18:22:27.295Z,3.37
2019-03-26T18:25:15.018Z,2.47
2019-03-26T18:28:03.032Z,2.15
2019-03-26T18:30:50.743Z,2.60
2019-03-26T18:33:38.735Z,5.47
2019-03-26T18:36:26.446Z,3.85
2019-03-26T18:39:14.166Z,3.77
2019-03-26T18:42:01.877Z,2.80
2019-03-26T18:44:49.595Z,3.10
2019-03-26T18:47:29.887Z,3.05
2019-03-26T18:50:10.416Z,4.10
2019-03-26T18:52:51.283Z,2.50
2019-03-26T18:55:31.708Z,2.35
2019-03-26T18:58:12.315Z,3.40
2019-03-26T19:00:52.853Z,4.28
2019-03-26T19:03:33.128Z,4.47
2019-03-26T19:06:13.515Z,3.10
2019-03-26T19:08:54.008Z,4.47
2019-03-26T19:11:34.724Z,3.40
2019-03-26T19:14:15.273Z,3.10
2019-03-26T19:16:55.803Z,3.10
2019-03-26T19:19:36.319Z,2.37
2019-03-26T19:22:16.887Z,3.05
2019-03-26T19:24:57.340Z,3.10
2019-03-26T19:27:37.953Z,2.37
2019-03-26T19:30:18.272Z,3.00
2019-03-26T19:32:58.420Z,4.12
2019-03-26T19:35:38.695Z,3.62
2019-03-26T19:38:19.356Z,3.87
2019-03-26T19:41:00.226Z,3.72
2019-03-26T19:43:40.831Z,4.25
2019-03-26T19:46:21.491Z,3.17
2019-03-26T19:49:02.782Z,3.72
2019-03-26T19:51:43.731Z,4.40
2019-03-26T19:54:24.871Z,4.20
2019-03-26T19:57:05.883Z,3.08
2019-03-26T19:59:46.395Z,4.85
2019-03-26T20:02:26.696Z,4.00
2019-03-26T20:05:07.507Z,3.87
2019-03-26T20:07:47.815Z,11.45
2019-03-26T20:10:29.978Z,13.35
2019-03-26T20:13:23.253Z,11.83
2019-03-26T20:15:52.807Z,10.00
2019-03-26T20:18:33.395Z,8.68
2019-03-26T20:21:13.879Z,6.00
2019-03-26T20:23:54.319Z,5.22
2019-03-26T20:26:35.299Z,4.90
2019-03-26T20:29:16.559Z,5.35
2019-03-26T20:31:56.922Z,4.53
2019-03-26T20:34:37.384Z,4.83
2019-03-26T20:37:18.381Z,4.65
2019-03-26T20:39:58.807Z,5.05
2019-03-26T20:42:39.416Z,5.87
2019-03-26T20:45:19.663Z,5.72
2019-03-26T20:48:00.031Z,6.22
2019-03-26T20:50:40.559Z,4.15
2019-03-26T20:53:21.251Z,5.87
2019-03-26T20:56:01.871Z,5.65
2019-03-26T20:58:42.327Z,4.47
2019-03-26T21:01:22.768Z,4.47
2019-03-26T21:04:03.362Z,5.15
2019-03-26T21:06:43.765Z,5.08
2019-03-26T21:09:24.315Z,3.85
2019-03-26T21:12:05.007Z,4.20
2019-03-26T21:14:45.810Z,4.20
2019-03-26T21:17:26.007Z,5.42
2019-03-26T21:20:06.331Z,3.70
2019-03-26T21:22:46.954Z,5.05
2019-03-26T21:25:27.490Z,7.22
2019-03-26T21:28:07.912Z,5.97
2019-03-26T21:30:48.651Z,5.58
2019-03-26T21:33:29.136Z,6.60
2019-03-26T21:36:09.663Z,5.58
2019-03-26T21:38:50.697Z,7.35
2019-03-26T21:41:30.962Z,4.85
2019-03-26T21:44:11.364Z,5.22
2019-03-26T21:46:51.987Z,4.70
2019-03-26T21:49:32.392Z,5.92
2019-03-26T21:52:12.942Z,4.85
2019-03-26T21:54:53.675Z,4.67
2019-03-26T21:57:34.355Z,6.42
2019-03-26T22:00:15.224Z,4.97
2019-03-26T22:02:55.622Z,5.40
2019-03-26T22:05:36.269Z,6.22
2019-03-26T22:08:16.962Z,4.87
2019-03-26T22:10:57.743Z,2.87
2019-03-26T22:13:38.199Z,5.65
2019-03-26T22:16:18.873Z,4.97
2019-03-26T22:18:59.346Z,4.25
2019-03-26T22:21:40.165Z,4.72
2019-03-26T22:24:20.851Z,4.70
2019-03-26T22:27:01.363Z,3.95
2019-03-26T22:29:41.992Z,4.97
2019-03-26T22:32:22.579Z,4.10
2019-03-26T22:35:03.770Z,4.20
2019-03-26T22:37:44.119Z,5.75
2019-03-26T22:40:24.732Z,3.92
2019-03-26T22:43:05.224Z,5.45
2019-03-26T22:45:45.696Z,5.95
2019-03-26T22:48:26.433Z,4.62
2019-03-26T22:51:06.716Z,4.95
2019-03-26T22:53:47.259Z,4.60
2019-03-26T22:56:27.703Z,4.95
2019-03-26T22:59:08.365Z,6.12
2019-03-26T23:01:48.766Z,4.78
2019-03-26T23:04:28.995Z,5.33
2019-03-26T23:07:09.854Z,4.95
2019-03-26T23:09:50.447Z,5.00
2019-03-26T23:12:30.815Z,5.08
2019-03-26T23:15:11.599Z,5.10
2019-03-26T23:17:52.611Z,5.60
2019-03-26T23:20:33.487Z,5.67
2019-03-26T23:23:13.819Z,3.92
2019-03-26T23:25:54.556Z,3.83
2019-03-26T23:28:34.979Z,4.45
2019-03-26T23:31:15.554Z,7.15
2019-03-26T23:33:56.350Z,5.50
2019-03-26T23:36:37.094Z,4.20
2019-03-26T23:39:17.812Z,5.95
2019-03-26T23:41:58.058Z,5.15
2019-03-26T23:44:38.578Z,5.58
2019-03-26T23:47:19.080Z,5.65
2019-03-26T23:49:59.863Z,3.70
2019-03-26T23:52:40.234Z,5.35
2019-03-26T23:55:20.780Z,4.87
2019-03-26T23:58:01.437Z,5.20
